sensor_id;sensor_type;location;lat;lon;timestamp;temperature;humidity
13458;DHT22;6801;53.018;11.560;2023-12-20T00:01:14;8.10;86.40
13458;DHT22;6801;53.018;11.560;2023-12-20T00:03:41;8.10;86.30
13458;DHT22;6801;53.018;11.560;2023-12-20T00:06:08;8.10;86.40
13458;DHT22;6801;53.018;11.560;2023-12-20T00:08:35;8.00;86.30
13458;DHT22;6801;53.018;11.560;2023-12-20T00:11:03;8.00;86.30
13458;DHT22;6801;53.018;11.560;2023-12-20T00:13:30;8.00;86.30
13458;DHT22;6801;53.018;11.560;2023-12-20T00:15:58;8.00;86.30
13458;DHT22;6801;53.018;11.560;2023-12-20T00:18:25;8.00;86.30
13458;DHT22;6801;53.018;11.560;2023-12-20T00:20:52;8.00;86.30
13458;DHT22;6801;53.018;11.560;2023-12-20T00:23:19;8.00;86.30
13458;DHT22;6801;53.018;11.560;2023-12-20T00:25:46;8.00;86.20
13458;DHT22;6801;53.018;11.560;2023-12-20T00:28:12;7.90;86.20
13458;DHT22;6801;53.018;11.560;2023-12-20T00:30:39;7.90;86.30
13458;DHT22;6801;53.018;11.560;2023-12-20T00:33:08;7.90;86.30
13458;DHT22;6801;53.018;11.560;2023-12-20T00:35:34;7.90;86.30
13458;DHT22;6801;53.018;11.560;2023-12-20T00:38:01;7.90;86.20
13458;DHT22;6801;53.018;11.560;2023-12-20T00:40:30;7.90;86.20
13458;DHT22;6801;53.018;11.560;2023-12-20T00:42:57;7.80;86.20
13458;DHT22;6801;53.018;11.560;2023-12-20T00:45:24;7.80;86.20
13458;DHT22;6801;53.018;11.560;2023-12-20T00:47:51;7.80;86.30
13458;DHT22;6801;53.018;11.560;2023-12-20T00:50:20;7.80;86.20
13458;DHT22;6801;53.018;11.560;2023-12-20T00:52:47;7.70;86.20
13458;DHT22;6801;53.018;11.560;2023-12-20T00:55:14;7.70;86.20
13458;DHT22;6801;53.018;11.560;2023-12-20T00:57:41;7.70;86.30
13458;DHT22;6801;53.018;11.560;2023-12-20T01:00:09;7.70;86.30
13458;DHT22;6801;53.018;11.560;2023-12-20T01:02:36;7.70;86.30
13458;DHT22;6801;53.018;11.560;2023-12-20T01:05:03;7.70;86.40
13458;DHT22;6801;53.018;11.560;2023-12-20T01:07:32;7.70;86.30
13458;DHT22;6801;53.018;11.560;2023-12-20T01:10:00;7.70;86.40
13458;DHT22;6801;53.018;11.560;2023-12-20T01:12:27;7.70;86.40
13458;DHT22;6801;53.018;11.560;2023-12-20T01:14:54;7.60;86.50
13458;DHT22;6801;53.018;11.560;2023-12-20T01:17:20;7.70;86.50
13458;DHT22;6801;53.018;11.560;2023-12-20T01:19:47;7.60;86.50
13458;DHT22;6801;53.018;11.560;2023-12-20T01:22:15;7.60;86.50
13458;DHT22;6801;53.018;11.560;2023-12-20T01:24:43;7.60;86.50
13458;DHT22;6801;53.018;11.560;2023-12-20T01:27:10;7.60;86.40
13458;DHT22;6801;53.018;11.560;2023-12-20T01:29:37;7.60;86.40
13458;DHT22;6801;53.018;11.560;2023-12-20T01:32:05;7.60;86.40
13458;DHT22;6801;53.018;11.560;2023-12-20T01:34:32;7.60;86.40
13458;DHT22;6801;53.018;11.560;2023-12-20T01:36:59;7.60;86.40
13458;DHT22;6801;53.018;11.560;2023-12-20T01:39:26;7.60;86.40
13458;DHT22;6801;53.018;11.560;2023-12-20T01:41:54;7.50;86.40
13458;DHT22;6801;53.018;11.560;2023-12-20T01:44:21;7.50;86.40
13458;DHT22;6801;53.018;11.560;2023-12-20T01:46:48;7.50;86.40
13458;DHT22;6801;53.018;11.560;2023-12-20T01:49:16;7.50;86.40
13458;DHT22;6801;53.018;11.560;2023-12-20T01:51:43;7.50;86.40
13458;DHT22;6801;53.018;11.560;2023-12-20T01:54:10;7.50;86.40
13458;DHT22;6801;53.018;11.560;2023-12-20T01:56:38;7.50;86.40
13458;DHT22;6801;53.018;11.560;2023-12-20T01:59:07;7.50;86.40
13458;DHT22;6801;53.018;11.560;2023-12-20T02:01:35;7.40;86.40
13458;DHT22;6801;53.018;11.560;2023-12-20T02:04:02;7.40;86.40
13458;DHT22;6801;53.018;11.560;2023-12-20T02:06:30;7.40;86.40
13458;DHT22;6801;53.018;11.560;2023-12-20T02:08:57;7.40;86.30
13458;DHT22;6801;53.018;11.560;2023-12-20T02:11:25;7.30;86.30
13458;DHT22;6801;53.018;11.560;2023-12-20T02:13:52;7.30;86.10
13458;DHT22;6801;53.018;11.560;2023-12-20T02:16:21;7.30;86.20
13458;DHT22;6801;53.018;11.560;2023-12-20T02:18:48;7.30;86.20
13458;DHT22;6801;53.018;11.560;2023-12-20T02:21:19;7.30;86.20
13458;DHT22;6801;53.018;11.560;2023-12-20T02:23:48;7.30;86.20
13458;DHT22;6801;53.018;11.560;2023-12-20T02:26:15;7.20;86.20
13458;DHT22;6801;53.018;11.560;2023-12-20T02:28:42;7.20;86.20
13458;DHT22;6801;53.018;11.560;2023-12-20T02:31:09;7.20;86.10
13458;DHT22;6801;53.018;11.560;2023-12-20T02:33:36;7.20;86.00
13458;DHT22;6801;53.018;11.560;2023-12-20T02:36:06;7.10;86.00
13458;DHT22;6801;53.018;11.560;2023-12-20T02:38:33;7.20;86.00
13458;DHT22;6801;53.018;11.560;2023-12-20T02:41:02;7.10;86.00
13458;DHT22;6801;53.018;11.560;2023-12-20T02:43:28;7.10;86.00
13458;DHT22;6801;53.018;11.560;2023-12-20T02:45:55;7.10;86.10
13458;DHT22;6801;53.018;11.560;2023-12-20T02:48:22;7.10;86.00
13458;DHT22;6801;53.018;11.560;2023-12-20T02:50:49;7.00;86.00
13458;DHT22;6801;53.018;11.560;2023-12-20T02:53:16;7.00;86.00
13458;DHT22;6801;53.018;11.560;2023-12-20T02:55:43;7.00;85.90
13458;DHT22;6801;53.018;11.560;2023-12-20T02:58:12;7.00;85.90
13458;DHT22;6801;53.018;11.560;2023-12-20T03:00:38;7.00;86.00
13458;DHT22;6801;53.018;11.560;2023-12-20T03:03:05;7.00;86.00
13458;DHT22;6801;53.018;11.560;2023-12-20T03:05:33;7.00;86.00
13458;DHT22;6801;53.018;11.560;2023-12-20T03:07:59;6.90;86.00
13458;DHT22;6801;53.018;11.560;2023-12-20T03:10:27;6.90;86.00
13458;DHT22;6801;53.018;11.560;2023-12-20T03:12:53;6.90;86.00
13458;DHT22;6801;53.018;11.560;2023-12-20T03:15:22;6.90;85.90
13458;DHT22;6801;53.018;11.560;2023-12-20T03:17:49;6.80;85.90
13458;DHT22;6801;53.018;11.560;2023-12-20T03:20:16;6.80;85.90
13458;DHT22;6801;53.018;11.560;2023-12-20T03:22:43;6.80;86.00
13458;DHT22;6801;53.018;11.560;2023-12-20T03:25:09;6.80;86.00
13458;DHT22;6801;53.018;11.560;2023-12-20T03:27:37;6.80;86.00
13458;DHT22;6801;53.018;11.560;2023-12-20T03:30:05;6.80;86.00
13458;DHT22;6801;53.018;11.560;2023-12-20T03:32:34;6.80;86.10
13458;DHT22;6801;53.018;11.560;2023-12-20T03:35:01;6.80;86.00
13458;DHT22;6801;53.018;11.560;2023-12-20T03:37:28;6.80;86.00
13458;DHT22;6801;53.018;11.560;2023-12-20T03:39:55;6.80;86.00
13458;DHT22;6801;53.018;11.560;2023-12-20T03:42:22;6.80;86.00
13458;DHT22;6801;53.018;11.560;2023-12-20T03:44:49;6.80;86.10
13458;DHT22;6801;53.018;11.560;2023-12-20T03:47:16;6.80;86.10
13458;DHT22;6801;53.018;11.560;2023-12-20T03:49:44;6.80;86.20
13458;DHT22;6801;53.018;11.560;2023-12-20T03:52:11;6.80;86.20
13458;DHT22;6801;53.018;11.560;2023-12-20T03:54:38;6.80;86.10
13458;DHT22;6801;53.018;11.560;2023-12-20T03:57:05;6.80;86.10
13458;DHT22;6801;53.018;11.560;2023-12-20T03:59:35;6.90;86.00
13458;DHT22;6801;53.018;11.560;2023-12-20T04:02:02;6.90;86.10
13458;DHT22;6801;53.018;11.560;2023-12-20T04:04:29;6.80;86.10
13458;DHT22;6801;53.018;11.560;2023-12-20T04:06:57;6.80;86.00
13458;DHT22;6801;53.018;11.560;2023-12-20T04:09:24;6.80;86.00
13458;DHT22;6801;53.018;11.560;2023-12-20T04:11:53;6.80;86.00
13458;DHT22;6801;53.018;11.560;2023-12-20T04:14:20;6.80;86.10
13458;DHT22;6801;53.018;11.560;2023-12-20T04:16:47;6.80;86.10
13458;DHT22;6801;53.018;11.560;2023-12-20T04:19:14;6.80;86.10
13458;DHT22;6801;53.018;11.560;2023-12-20T04:21:40;6.80;86.10
13458;DHT22;6801;53.018;11.560;2023-12-20T04:24:09;6.80;86.10
13458;DHT22;6801;53.018;11.560;2023-12-20T04:26:36;6.80;86.00
13458;DHT22;6801;53.018;11.560;2023-12-20T04:29:03;6.80;85.90
13458;DHT22;6801;53.018;11.560;2023-12-20T04:31:29;6.70;85.90
13458;DHT22;6801;53.018;11.560;2023-12-20T04:33:56;6.70;85.90
13458;DHT22;6801;53.018;11.560;2023-12-20T04:36:23;6.70;85.90
13458;DHT22;6801;53.018;11.560;2023-12-20T04:38:52;6.70;85.90
13458;DHT22;6801;53.018;11.560;2023-12-20T04:41:21;6.70;86.00
13458;DHT22;6801;53.018;11.560;2023-12-20T04:43:48;6.70;86.00
13458;DHT22;6801;53.018;11.560;2023-12-20T04:46:15;6.70;85.90
13458;DHT22;6801;53.018;11.560;2023-12-20T04:48:42;6.70;86.00
13458;DHT22;6801;53.018;11.560;2023-12-20T04:51:09;6.70;85.90
13458;DHT22;6801;53.018;11.560;2023-12-20T04:53:36;6.70;86.00
13458;DHT22;6801;53.018;11.560;2023-12-20T04:56:03;6.70;85.90
13458;DHT22;6801;53.018;11.560;2023-12-20T04:58:31;6.60;85.90
13458;DHT22;6801;53.018;11.560;2023-12-20T05:00:58;6.60;86.00
13458;DHT22;6801;53.018;11.560;2023-12-20T05:03:25;6.60;86.10
13458;DHT22;6801;53.018;11.560;2023-12-20T05:05:52;6.60;86.10
13458;DHT22;6801;53.018;11.560;2023-12-20T05:08:19;6.70;86.10
13458;DHT22;6801;53.018;11.560;2023-12-20T05:10:46;6.60;86.00
13458;DHT22;6801;53.018;11.560;2023-12-20T05:13:13;6.70;86.00
13458;DHT22;6801;53.018;11.560;2023-12-20T05:15:41;6.70;85.90
13458;DHT22;6801;53.018;11.560;2023-12-20T05:18:08;6.70;85.90
13458;DHT22;6801;53.018;11.560;2023-12-20T05:20:35;6.60;86.00
13458;DHT22;6801;53.018;11.560;2023-12-20T05:23:03;6.60;86.10
13458;DHT22;6801;53.018;11.560;2023-12-20T05:25:30;6.60;86.10
13458;DHT22;6801;53.018;11.560;2023-12-20T05:27:56;6.70;86.00
13458;DHT22;6801;53.018;11.560;2023-12-20T05:30:23;6.70;86.00
13458;DHT22;6801;53.018;11.560;2023-12-20T05:32:52;6.70;85.90
13458;DHT22;6801;53.018;11.560;2023-12-20T05:35:19;6.70;85.90
13458;DHT22;6801;53.018;11.560;2023-12-20T05:37:47;6.60;85.90
13458;DHT22;6801;53.018;11.560;2023-12-20T05:40:14;6.70;86.00
13458;DHT22;6801;53.018;11.560;2023-12-20T05:42:41;6.70;86.00
13458;DHT22;6801;53.018;11.560;2023-12-20T05:45:09;6.60;86.00
13458;DHT22;6801;53.018;11.560;2023-12-20T05:47:36;6.60;86.00
13458;DHT22;6801;53.018;11.560;2023-12-20T05:50:05;6.60;86.00
13458;DHT22;6801;53.018;11.560;2023-12-20T05:52:32;6.60;86.00
13458;DHT22;6801;53.018;11.560;2023-12-20T05:55:00;6.60;85.90
13458;DHT22;6801;53.018;11.560;2023-12-20T05:57:27;6.60;86.00
13458;DHT22;6801;53.018;11.560;2023-12-20T05:59:54;6.70;85.90
13458;DHT22;6801;53.018;11.560;2023-12-20T06:02:21;6.70;85.80
13458;DHT22;6801;53.018;11.560;2023-12-20T06:04:48;6.70;85.80
13458;DHT22;6801;53.018;11.560;2023-12-20T06:07:17;6.70;85.90
13458;DHT22;6801;53.018;11.560;2023-12-20T06:09:44;6.60;85.90
13458;DHT22;6801;53.018;11.560;2023-12-20T06:12:10;6.70;85.90
13458;DHT22;6801;53.018;11.560;2023-12-20T06:14:37;6.70;85.90
13458;DHT22;6801;53.018;11.560;2023-12-20T06:17:04;6.60;86.10
13458;DHT22;6801;53.018;11.560;2023-12-20T06:19:31;6.60;86.00
13458;DHT22;6801;53.018;11.560;2023-12-20T06:21:58;6.70;86.00
13458;DHT22;6801;53.018;11.560;2023-12-20T06:24:26;6.70;86.10
13458;DHT22;6801;53.018;11.560;2023-12-20T06:26:53;6.70;86.10
13458;DHT22;6801;53.018;11.560;2023-12-20T06:29:20;6.70;86.10
13458;DHT22;6801;53.018;11.560;2023-12-20T06:31:47;6.70;86.10
13458;DHT22;6801;53.018;11.560;2023-12-20T06:34:14;6.70;86.10
13458;DHT22;6801;53.018;11.560;2023-12-20T06:36:41;6.70;86.00
13458;DHT22;6801;53.018;11.560;2023-12-20T06:39:08;6.70;86.10
13458;DHT22;6801;53.018;11.560;2023-12-20T06:41:36;6.70;86.00
13458;DHT22;6801;53.018;11.560;2023-12-20T06:44:03;6.70;86.10
13458;DHT22;6801;53.018;11.560;2023-12-20T06:46:30;6.70;86.10
13458;DHT22;6801;53.018;11.560;2023-12-20T06:48:57;6.70;86.10
13458;DHT22;6801;53.018;11.560;2023-12-20T06:51:24;6.70;86.10
13458;DHT22;6801;53.018;11.560;2023-12-20T06:53:51;6.80;86.10
13458;DHT22;6801;53.018;11.560;2023-12-20T06:56:18;6.80;86.10
13458;DHT22;6801;53.018;11.560;2023-12-20T06:58:47;6.80;86.10
13458;DHT22;6801;53.018;11.560;2023-12-20T07:01:15;6.80;86.00
13458;DHT22;6801;53.018;11.560;2023-12-20T07:03:42;6.80;86.00
13458;DHT22;6801;53.018;11.560;2023-12-20T07:06:09;6.90;85.90
13458;DHT22;6801;53.018;11.560;2023-12-20T07:08:36;6.90;85.90
13458;DHT22;6801;53.018;11.560;2023-12-20T07:11:03;6.90;85.80
13458;DHT22;6801;53.018;11.560;2023-12-20T07:13:30;6.90;85.90
13458;DHT22;6801;53.018;11.560;2023-12-20T07:15:58;6.90;86.00
13458;DHT22;6801;53.018;11.560;2023-12-20T07:18:25;6.90;86.00
13458;DHT22;6801;53.018;11.560;2023-12-20T07:20:52;6.90;85.90
13458;DHT22;6801;53.018;11.560;2023-12-20T07:23:20;6.90;85.90
13458;DHT22;6801;53.018;11.560;2023-12-20T07:25:47;6.90;86.00
13458;DHT22;6801;53.018;11.560;2023-12-20T07:28:14;6.90;85.90
13458;DHT22;6801;53.018;11.560;2023-12-20T07:30:41;6.90;86.00
13458;DHT22;6801;53.018;11.560;2023-12-20T07:33:09;6.80;85.90
13458;DHT22;6801;53.018;11.560;2023-12-20T07:35:38;6.90;86.00
13458;DHT22;6801;53.018;11.560;2023-12-20T07:38:04;6.80;86.00
13458;DHT22;6801;53.018;11.560;2023-12-20T07:40:32;6.90;86.00
13458;DHT22;6801;53.018;11.560;2023-12-20T07:42:59;6.90;86.00
13458;DHT22;6801;53.018;11.560;2023-12-20T07:45:26;6.90;86.00
13458;DHT22;6801;53.018;11.560;2023-12-20T07:47:53;6.90;86.00
13458;DHT22;6801;53.018;11.560;2023-12-20T07:50:21;6.90;86.00
13458;DHT22;6801;53.018;11.560;2023-12-20T07:52:48;6.90;86.10
13458;DHT22;6801;53.018;11.560;2023-12-20T07:55:15;6.90;86.00
13458;DHT22;6801;53.018;11.560;2023-12-20T07:57:42;7.00;85.80
13458;DHT22;6801;53.018;11.560;2023-12-20T08:00:10;6.90;85.90
13458;DHT22;6801;53.018;11.560;2023-12-20T08:02:37;7.00;85.80
13458;DHT22;6801;53.018;11.560;2023-12-20T08:05:05;7.00;85.80
13458;DHT22;6801;53.018;11.560;2023-12-20T08:07:33;7.00;85.90
13458;DHT22;6801;53.018;11.560;2023-12-20T08:10:00;6.90;85.90
13458;DHT22;6801;53.018;11.560;2023-12-20T08:12:27;7.00;85.80
13458;DHT22;6801;53.018;11.560;2023-12-20T08:14:54;6.90;85.90
13458;DHT22;6801;53.018;11.560;2023-12-20T08:17:22;7.00;85.80
13458;DHT22;6801;53.018;11.560;2023-12-20T08:19:49;7.00;85.80
13458;DHT22;6801;53.018;11.560;2023-12-20T08:22:16;7.00;85.90
13458;DHT22;6801;53.018;11.560;2023-12-20T08:24:45;7.00;85.50
13458;DHT22;6801;53.018;11.560;2023-12-20T08:27:11;7.00;85.60
13458;DHT22;6801;53.018;11.560;2023-12-20T08:29:38;7.00;85.60
13458;DHT22;6801;53.018;11.560;2023-12-20T08:32:05;7.00;85.70
13458;DHT22;6801;53.018;11.560;2023-12-20T08:34:32;7.00;85.70
13458;DHT22;6801;53.018;11.560;2023-12-20T08:36:59;7.00;85.50
13458;DHT22;6801;53.018;11.560;2023-12-20T08:39:26;7.00;85.60
13458;DHT22;6801;53.018;11.560;2023-12-20T08:41:56;7.00;85.70
13458;DHT22;6801;53.018;11.560;2023-12-20T08:44:24;7.00;85.70
13458;DHT22;6801;53.018;11.560;2023-12-20T08:46:50;7.00;85.70
13458;DHT22;6801;53.018;11.560;2023-12-20T08:49:20;7.00;85.70
13458;DHT22;6801;53.018;11.560;2023-12-20T08:51:47;7.10;85.60
13458;DHT22;6801;53.018;11.560;2023-12-20T08:54:14;7.00;85.60
13458;DHT22;6801;53.018;11.560;2023-12-20T08:56:42;7.00;85.60
13458;DHT22;6801;53.018;11.560;2023-12-20T08:59:10;7.10;85.70
13458;DHT22;6801;53.018;11.560;2023-12-20T09:01:37;7.10;85.50
13458;DHT22;6801;53.018;11.560;2023-12-20T09:04:04;7.00;85.20
13458;DHT22;6801;53.018;11.560;2023-12-20T09:06:32;7.10;85.70
13458;DHT22;6801;53.018;11.560;2023-12-20T09:08:59;7.10;85.60
13458;DHT22;6801;53.018;11.560;2023-12-20T09:11:26;7.10;85.70
13458;DHT22;6801;53.018;11.560;2023-12-20T09:13:52;7.20;85.50
13458;DHT22;6801;53.018;11.560;2023-12-20T09:16:21;7.20;85.50
13458;DHT22;6801;53.018;11.560;2023-12-20T09:18:48;7.10;85.50
13458;DHT22;6801;53.018;11.560;2023-12-20T09:21:16;7.10;85.60
13458;DHT22;6801;53.018;11.560;2023-12-20T09:23:42;7.10;85.50
13458;DHT22;6801;53.018;11.560;2023-12-20T09:26:09;7.20;85.60
13458;DHT22;6801;53.018;11.560;2023-12-20T09:28:36;7.20;85.50
13458;DHT22;6801;53.018;11.560;2023-12-20T09:31:04;7.20;85.40
13458;DHT22;6801;53.018;11.560;2023-12-20T09:33:34;7.20;85.50
13458;DHT22;6801;53.018;11.560;2023-12-20T09:36:01;7.30;85.40
13458;DHT22;6801;53.018;11.560;2023-12-20T09:38:27;7.30;85.20
13458;DHT22;6801;53.018;11.560;2023-12-20T09:40:54;7.30;85.30
13458;DHT22;6801;53.018;11.560;2023-12-20T09:43:23;7.30;85.50
13458;DHT22;6801;53.018;11.560;2023-12-20T09:45:53;7.30;85.50
13458;DHT22;6801;53.018;11.560;2023-12-20T09:48:20;7.20;85.50
13458;DHT22;6801;53.018;11.560;2023-12-20T09:50:48;7.30;85.50
13458;DHT22;6801;53.018;11.560;2023-12-20T09:53:16;7.20;85.50
13458;DHT22;6801;53.018;11.560;2023-12-20T09:55:44;7.20;85.30
13458;DHT22;6801;53.018;11.560;2023-12-20T09:58:11;7.30;85.30
13458;DHT22;6801;53.018;11.560;2023-12-20T10:00:38;7.20;85.40
13458;DHT22;6801;53.018;11.560;2023-12-20T10:03:06;7.20;85.40
13458;DHT22;6801;53.018;11.560;2023-12-20T10:05:34;7.30;85.20
13458;DHT22;6801;53.018;11.560;2023-12-20T10:08:03;7.30;85.50
13458;DHT22;6801;53.018;11.560;2023-12-20T10:10:30;7.30;85.10
13458;DHT22;6801;53.018;11.560;2023-12-20T10:13:04;7.30;85.30
13458;DHT22;6801;53.018;11.560;2023-12-20T10:15:32;7.30;85.30
13458;DHT22;6801;53.018;11.560;2023-12-20T10:18:00;7.40;85.10
13458;DHT22;6801;53.018;11.560;2023-12-20T10:20:27;7.30;85.00
13458;DHT22;6801;53.018;11.560;2023-12-20T10:22:55;7.30;85.20
13458;DHT22;6801;53.018;11.560;2023-12-20T10:25:24;7.40;85.20
13458;DHT22;6801;53.018;11.560;2023-12-20T10:28:09;7.50;85.10
13458;DHT22;6801;53.018;11.560;2023-12-20T10:30:36;7.40;85.10
13458;DHT22;6801;53.018;11.560;2023-12-20T10:33:05;7.50;84.90
13458;DHT22;6801;53.018;11.560;2023-12-20T10:35:33;7.40;85.10
13458;DHT22;6801;53.018;11.560;2023-12-20T10:38:03;7.40;85.20
13458;DHT22;6801;53.018;11.560;2023-12-20T10:40:34;7.40;85.20
13458;DHT22;6801;53.018;11.560;2023-12-20T10:43:02;7.40;85.30
13458;DHT22;6801;53.018;11.560;2023-12-20T10:45:30;7.40;85.40
13458;DHT22;6801;53.018;11.560;2023-12-20T10:47:58;7.40;85.40
13458;DHT22;6801;53.018;11.560;2023-12-20T10:50:27;7.40;85.50
13458;DHT22;6801;53.018;11.560;2023-12-20T10:52:55;7.50;85.40
13458;DHT22;6801;53.018;11.560;2023-12-20T10:55:23;7.60;85.30
13458;DHT22;6801;53.018;11.560;2023-12-20T10:57:51;7.60;85.20
13458;DHT22;6801;53.018;11.560;2023-12-20T11:00:19;7.70;85.20
13458;DHT22;6801;53.018;11.560;2023-12-20T11:02:49;7.60;84.90
13458;DHT22;6801;53.018;11.560;2023-12-20T11:05:26;7.60;85.10
13458;DHT22;6801;53.018;11.560;2023-12-20T11:08:00;7.60;84.70
13458;DHT22;6801;53.018;11.560;2023-12-20T11:10:34;7.50;85.00
13458;DHT22;6801;53.018;11.560;2023-12-20T11:13:09;7.50;85.40
13458;DHT22;6801;53.018;11.560;2023-12-20T11:15:37;7.50;85.10
13458;DHT22;6801;53.018;11.560;2023-12-20T11:18:05;7.50;85.20
13458;DHT22;6801;53.018;11.560;2023-12-20T11:20:36;7.50;84.10
13458;DHT22;6801;53.018;11.560;2023-12-20T11:23:04;7.50;84.50
13458;DHT22;6801;53.018;11.560;2023-12-20T11:25:46;7.30;83.00
13458;DHT22;6801;53.018;11.560;2023-12-20T11:28:13;7.30;83.10
13458;DHT22;6801;53.018;11.560;2023-12-20T11:30:41;7.30;83.80
13458;DHT22;6801;53.018;11.560;2023-12-20T11:33:09;7.30;83.50
13458;DHT22;6801;53.018;11.560;2023-12-20T11:35:36;7.30;84.40
13458;DHT22;6801;53.018;11.560;2023-12-20T11:38:08;7.30;84.50
13458;DHT22;6801;53.018;11.560;2023-12-20T11:40:35;7.30;84.50
13458;DHT22;6801;53.018;11.560;2023-12-20T11:43:03;7.30;84.30
13458;DHT22;6801;53.018;11.560;2023-12-20T11:45:32;7.30;84.40
13458;DHT22;6801;53.018;11.560;2023-12-20T11:48:02;7.30;84.50
13458;DHT22;6801;53.018;11.560;2023-12-20T11:50:29;7.30;84.60
13458;DHT22;6801;53.018;11.560;2023-12-20T11:52:57;7.30;84.50
13458;DHT22;6801;53.018;11.560;2023-12-20T11:55:23;7.30;83.90
13458;DHT22;6801;53.018;11.560;2023-12-20T11:57:51;7.20;84.30
13458;DHT22;6801;53.018;11.560;2023-12-20T12:00:18;7.20;84.30
13458;DHT22;6801;53.018;11.560;2023-12-20T12:02:58;7.20;84.30
13458;DHT22;6801;53.018;11.560;2023-12-20T12:05:25;7.20;84.80
13458;DHT22;6801;53.018;11.560;2023-12-20T12:07:53;7.10;84.50
13458;DHT22;6801;53.018;11.560;2023-12-20T12:10:21;7.10;84.80
13458;DHT22;6801;53.018;11.560;2023-12-20T12:12:48;7.20;84.40
13458;DHT22;6801;53.018;11.560;2023-12-20T12:15:15;7.10;83.90
13458;DHT22;6801;53.018;11.560;2023-12-20T12:17:42;7.10;84.60
13458;DHT22;6801;53.018;11.560;2023-12-20T12:20:11;7.10;84.80
13458;DHT22;6801;53.018;11.560;2023-12-20T12:22:39;7.10;84.60
13458;DHT22;6801;53.018;11.560;2023-12-20T12:25:13;7.10;84.90
13458;DHT22;6801;53.018;11.560;2023-12-20T12:27:41;7.10;85.00
13458;DHT22;6801;53.018;11.560;2023-12-20T12:30:09;7.20;84.90
13458;DHT22;6801;53.018;11.560;2023-12-20T12:32:38;7.20;84.70
13458;DHT22;6801;53.018;11.560;2023-12-20T12:35:06;7.20;84.80
13458;DHT22;6801;53.018;11.560;2023-12-20T12:37:38;7.20;84.90
13458;DHT22;6801;53.018;11.560;2023-12-20T12:40:09;7.20;84.80
13458;DHT22;6801;53.018;11.560;2023-12-20T12:42:36;7.20;85.00
13458;DHT22;6801;53.018;11.560;2023-12-20T12:45:05;7.30;85.20
13458;DHT22;6801;53.018;11.560;2023-12-20T12:47:33;7.30;85.00
13458;DHT22;6801;53.018;11.560;2023-12-20T12:50:00;7.30;84.60
13458;DHT22;6801;53.018;11.560;2023-12-20T12:52:27;7.30;84.00
13458;DHT22;6801;53.018;11.560;2023-12-20T12:54:55;7.30;84.70
13458;DHT22;6801;53.018;11.560;2023-12-20T12:57:23;7.30;84.10
13458;DHT22;6801;53.018;11.560;2023-12-20T12:59:50;7.40;85.00
13458;DHT22;6801;53.018;11.560;2023-12-20T13:02:17;7.40;83.90
13458;DHT22;6801;53.018;11.560;2023-12-20T13:04:44;7.40;83.00
13458;DHT22;6801;53.018;11.560;2023-12-20T13:07:11;7.40;84.30
13458;DHT22;6801;53.018;11.560;2023-12-20T13:09:39;7.40;84.00
13458;DHT22;6801;53.018;11.560;2023-12-20T13:12:08;7.40;84.10
13458;DHT22;6801;53.018;11.560;2023-12-20T13:14:35;7.40;83.60
13458;DHT22;6801;53.018;11.560;2023-12-20T13:17:03;7.30;82.70
13458;DHT22;6801;53.018;11.560;2023-12-20T13:19:31;7.40;84.00
13458;DHT22;6801;53.018;11.560;2023-12-20T13:21:58;7.40;82.20
13458;DHT22;6801;53.018;11.560;2023-12-20T13:24:25;7.30;83.20
13458;DHT22;6801;53.018;11.560;2023-12-20T13:26:52;7.30;82.00
13458;DHT22;6801;53.018;11.560;2023-12-20T13:29:20;7.40;83.40
13458;DHT22;6801;53.018;11.560;2023-12-20T13:31:49;7.40;83.30
13458;DHT22;6801;53.018;11.560;2023-12-20T13:34:16;7.30;83.20
13458;DHT22;6801;53.018;11.560;2023-12-20T13:36:43;7.30;81.80
13458;DHT22;6801;53.018;11.560;2023-12-20T13:39:13;7.30;82.70
13458;DHT22;6801;53.018;11.560;2023-12-20T13:41:40;7.30;83.30
13458;DHT22;6801;53.018;11.560;2023-12-20T13:44:07;7.20;83.40
13458;DHT22;6801;53.018;11.560;2023-12-20T13:46:36;7.30;83.60
13458;DHT22;6801;53.018;11.560;2023-12-20T13:49:03;7.20;83.30
13458;DHT22;6801;53.018;11.560;2023-12-20T13:51:30;7.20;83.30
13458;DHT22;6801;53.018;11.560;2023-12-20T13:53:57;7.30;82.90
13458;DHT22;6801;53.018;11.560;2023-12-20T13:56:25;7.30;83.30
13458;DHT22;6801;53.018;11.560;2023-12-20T13:58:51;7.20;82.50
13458;DHT22;6801;53.018;11.560;2023-12-20T14:01:18;7.30;82.90
13458;DHT22;6801;53.018;11.560;2023-12-20T14:03:47;7.30;82.30
13458;DHT22;6801;53.018;11.560;2023-12-20T14:06:14;7.30;83.10
13458;DHT22;6801;53.018;11.560;2023-12-20T14:08:42;7.30;81.60
13458;DHT22;6801;53.018;11.560;2023-12-20T14:11:09;7.20;81.80
13458;DHT22;6801;53.018;11.560;2023-12-20T14:13:36;7.20;81.60
13458;DHT22;6801;53.018;11.560;2023-12-20T14:16:03;7.20;82.20
13458;DHT22;6801;53.018;11.560;2023-12-20T14:18:30;7.20;82.70
13458;DHT22;6801;53.018;11.560;2023-12-20T14:20:58;7.10;82.70
13458;DHT22;6801;53.018;11.560;2023-12-20T14:23:25;7.10;82.80
13458;DHT22;6801;53.018;11.560;2023-12-20T14:25:52;7.10;81.50
13458;DHT22;6801;53.018;11.560;2023-12-20T14:28:21;7.20;82.90
13458;DHT22;6801;53.018;11.560;2023-12-20T14:30:48;7.20;81.80
13458;DHT22;6801;53.018;11.560;2023-12-20T14:33:15;7.20;82.10
13458;DHT22;6801;53.018;11.560;2023-12-20T14:35:42;7.10;82.70
13458;DHT22;6801;53.018;11.560;2023-12-20T14:38:11;7.10;82.20
13458;DHT22;6801;53.018;11.560;2023-12-20T14:40:39;7.10;82.60
13458;DHT22;6801;53.018;11.560;2023-12-20T14:43:06;7.10;82.10
13458;DHT22;6801;53.018;11.560;2023-12-20T14:45:33;7.10;82.00
13458;DHT22;6801;53.018;11.560;2023-12-20T14:48:00;7.00;81.50
13458;DHT22;6801;53.018;11.560;2023-12-20T14:50:27;7.00;81.50
13458;DHT22;6801;53.018;11.560;2023-12-20T14:52:54;7.00;80.40
13458;DHT22;6801;53.018;11.560;2023-12-20T14:55:23;7.00;81.70
13458;DHT22;6801;53.018;11.560;2023-12-20T14:57:52;7.00;82.20
13458;DHT22;6801;53.018;11.560;2023-12-20T15:00:19;7.00;81.60
13458;DHT22;6801;53.018;11.560;2023-12-20T15:02:46;7.00;82.30
13458;DHT22;6801;53.018;11.560;2023-12-20T15:05:13;7.00;82.00
13458;DHT22;6801;53.018;11.560;2023-12-20T15:07:41;6.90;81.60
13458;DHT22;6801;53.018;11.560;2023-12-20T15:10:08;7.00;82.00
13458;DHT22;6801;53.018;11.560;2023-12-20T15:12:37;6.90;81.40
13458;DHT22;6801;53.018;11.560;2023-12-20T15:15:04;6.90;82.20
13458;DHT22;6801;53.018;11.560;2023-12-20T15:17:31;6.90;82.40
13458;DHT22;6801;53.018;11.560;2023-12-20T15:19:58;7.00;82.50
13458;DHT22;6801;53.018;11.560;2023-12-20T15:22:25;6.90;82.50
13458;DHT22;6801;53.018;11.560;2023-12-20T15:24:52;6.90;82.60
13458;DHT22;6801;53.018;11.560;2023-12-20T15:27:20;6.90;82.70
13458;DHT22;6801;53.018;11.560;2023-12-20T15:29:48;6.80;82.70
13458;DHT22;6801;53.018;11.560;2023-12-20T15:32:17;6.80;82.70
13458;DHT22;6801;53.018;11.560;2023-12-20T15:34:46;6.80;82.80
13458;DHT22;6801;53.018;11.560;2023-12-20T15:37:13;6.80;82.80
13458;DHT22;6801;53.018;11.560;2023-12-20T15:39:41;6.70;82.80
13458;DHT22;6801;53.018;11.560;2023-12-20T15:42:08;6.70;82.80
13458;DHT22;6801;53.018;11.560;2023-12-20T15:44:35;6.70;82.90
13458;DHT22;6801;53.018;11.560;2023-12-20T15:47:04;6.70;83.00